createdAt,value
2018-03-17T00:02:11.290Z,5.25
2018-03-17T00:04:40.780Z,3.62
2018-03-17T00:07:09.473Z,4.32
2018-03-17T00:09:38.206Z,3.90
2018-03-17T00:12:06.906Z,3.85
2018-03-17T00:14:35.595Z,3.85
2018-03-17T00:17:04.308Z,3.90
2018-03-17T00:19:33.015Z,3.90
2018-03-17T00:22:02.489Z,4.20
2018-03-17T00:24:31.293Z,4.18
2018-03-17T00:26:59.746Z,4.50
2018-03-17T00:29:28.467Z,4.68
2018-03-17T00:31:57.168Z,4.45
2018-03-17T00:34:25.618Z,4.03
2018-03-17T00:36:54.334Z,3.20
2018-03-17T00:39:22.784Z,3.67
2018-03-17T00:41:51.504Z,3.80
2018-03-17T00:44:20.207Z,4.20
2018-03-17T00:46:48.787Z,4.93
2018-03-17T00:49:18.274Z,4.10
2018-03-17T00:51:46.987Z,4.40
2018-03-17T00:54:16.258Z,3.97
2018-03-17T00:56:44.900Z,5.00
2018-03-17T00:59:13.614Z,6.07
2018-03-17T01:01:42.807Z,5.00
2018-03-17T01:04:11.542Z,4.60
2018-03-17T01:06:39.983Z,5.07
2018-03-17T01:09:08.062Z,5.37
2018-03-17T01:11:36.791Z,5.62
2018-03-17T01:14:04.898Z,5.07
2018-03-17T01:16:33.341Z,5.40
2018-03-17T01:19:01.778Z,4.50
2018-03-17T01:21:30.214Z,5.30
2018-03-17T01:23:58.757Z,4.50
2018-03-17T01:26:27.950Z,4.67
2018-03-17T01:28:57.169Z,4.90
2018-03-17T01:31:25.594Z,4.83
2018-03-17T01:33:54.020Z,5.77
2018-03-17T01:36:23.218Z,5.03
2018-03-17T01:38:52.430Z,5.30
2018-03-17T01:41:20.942Z,5.50
2018-03-17T01:43:49.374Z,5.70
2018-03-17T01:46:18.587Z,4.87
2018-03-17T01:48:47.779Z,5.17
2018-03-17T01:51:16.995Z,5.83
2018-03-17T01:53:45.426Z,4.37
2018-03-17T01:56:14.079Z,4.90
2018-03-17T01:58:42.574Z,4.57
2018-03-17T02:01:10.687Z,6.00
2018-03-17T02:03:39.891Z,5.97
2018-03-17T02:06:09.126Z,5.87
2018-03-17T02:08:37.567Z,6.27
2018-03-17T02:11:06.007Z,5.63
2018-03-17T02:13:34.479Z,6.03
2018-03-17T02:16:02.913Z,7.53
2018-03-17T02:18:31.399Z,7.83
2018-03-17T02:21:00.098Z,7.18
2018-03-17T02:23:29.302Z,8.10
2018-03-17T02:25:58.502Z,7.13
2018-03-17T02:28:27.906Z,8.03
2018-03-17T02:30:57.102Z,6.33
2018-03-17T02:33:26.307Z,6.57
2018-03-17T02:35:55.493Z,6.10
2018-03-17T02:38:24.686Z,5.87
2018-03-17T02:40:53.122Z,6.70
2018-03-17T02:43:21.750Z,6.10
2018-03-17T02:45:50.203Z,8.23
2018-03-17T02:48:18.650Z,7.17
2018-03-17T02:50:47.074Z,8.30
2018-03-17T02:53:15.517Z,9.07
2018-03-17T02:55:44.111Z,9.27
2018-03-17T02:58:12.546Z,10.97
2018-03-17T03:00:40.995Z,10.83
2018-03-17T03:03:09.430Z,10.83
2018-03-17T03:05:38.651Z,11.90
2018-03-17T03:08:07.076Z,10.93
2018-03-17T03:10:35.527Z,12.03
2018-03-17T03:13:04.826Z,12.87
2018-03-17T03:15:33.281Z,12.23
2018-03-17T03:18:02.568Z,11.07
2018-03-17T03:20:31.774Z,12.80
2018-03-17T03:23:00.990Z,12.40
2018-03-17T03:25:29.488Z,14.60
2018-03-17T03:27:57.923Z,14.27
2018-03-17T03:30:26.356Z,15.10
2018-03-17T03:32:54.794Z,15.37
2018-03-17T03:35:23.994Z,15.43
2018-03-17T03:37:53.209Z,17.80
2018-03-17T03:40:21.640Z,16.00
2018-03-17T03:42:50.206Z,15.60
2018-03-17T03:45:18.634Z,15.20
2018-03-17T03:47:47.843Z,16.67
2018-03-17T03:50:16.286Z,16.33
2018-03-17T03:52:44.749Z,19.70
2018-03-17T03:55:13.182Z,19.80
2018-03-17T03:57:42.646Z,21.43
2018-03-17T04:00:11.095Z,20.77
2018-03-17T04:02:40.820Z,21.77
2018-03-17T04:05:09.257Z,24.43
2018-03-17T04:07:38.817Z,23.40
2018-03-17T04:10:07.251Z,24.97
2018-03-17T04:12:36.658Z,23.90
2018-03-17T04:15:05.867Z,23.40
2018-03-17T04:17:34.748Z,22.67
2018-03-17T04:20:03.625Z,22.97
2018-03-17T04:22:33.130Z,22.27
2018-03-17T04:25:02.666Z,23.53
2018-03-17T04:27:32.196Z,25.37
2018-03-17T04:30:01.667Z,24.83
2018-03-17T04:32:31.127Z,23.07
2018-03-17T04:35:00.569Z,26.70
2018-03-17T04:37:30.024Z,25.90
2018-03-17T04:39:59.461Z,27.87
2018-03-17T04:42:28.917Z,25.97
2018-03-17T04:44:58.370Z,23.80
2018-03-17T04:47:28.085Z,27.05
2018-03-17T04:49:57.542Z,26.37
2018-03-17T04:52:27.261Z,25.42
2018-03-17T04:54:56.703Z,25.30
2018-03-17T04:57:26.437Z,25.92
2018-03-17T04:59:56.299Z,25.98
2018-03-17T05:02:25.750Z,28.17
2018-03-17T05:04:55.478Z,28.45
2018-03-17T05:07:25.250Z,26.92
2018-03-17T05:09:55.029Z,27.37
2018-03-17T05:12:25.077Z,27.52
2018-03-17T05:14:54.949Z,25.50
2018-03-17T05:17:24.659Z,27.55
2018-03-17T05:19:54.386Z,27.62
2018-03-17T05:22:24.105Z,27.83
2018-03-17T05:24:53.822Z,26.23
2018-03-17T05:27:23.537Z,28.40
2018-03-17T05:29:53.264Z,29.20
2018-03-17T05:32:22.986Z,29.63
2018-03-17T05:34:52.717Z,28.27
2018-03-17T05:37:22.451Z,28.85
2018-03-17T05:39:51.986Z,28.35
2018-03-17T05:42:21.724Z,29.70
2018-03-17T05:44:51.638Z,28.40
2018-03-17T05:47:21.385Z,28.48
2018-03-17T05:49:51.259Z,28.52
2018-03-17T05:52:21.406Z,29.37
2018-03-17T05:54:51.116Z,28.83
2018-03-17T05:57:20.587Z,28.60
2018-03-17T05:59:50.378Z,30.88
2018-03-17T06:02:19.854Z,28.77
2018-03-17T06:04:49.579Z,30.35
2018-03-17T06:07:19.394Z,29.83
2018-03-17T06:09:49.358Z,29.75
2018-03-17T06:12:19.085Z,28.83
2018-03-17T06:14:48.941Z,27.67
2018-03-17T06:17:18.690Z,29.37
2018-03-17T06:19:48.426Z,30.27
2018-03-17T06:22:18.147Z,27.80
2018-03-17T06:24:47.876Z,28.50
2018-03-17T06:27:17.623Z,28.05
2018-03-17T06:29:47.573Z,27.08
2018-03-17T06:32:17.337Z,28.33
2018-03-17T06:34:47.074Z,27.37
2018-03-17T06:37:16.860Z,28.27
2018-03-17T06:39:46.466Z,25.97
2018-03-17T06:42:16.238Z,25.37
2018-03-17T06:44:45.973Z,26.85
2018-03-17T06:47:15.715Z,26.83
2018-03-17T06:49:45.503Z,27.13
2018-03-17T06:52:15.270Z,30.12
2018-03-17T06:54:44.991Z,28.17
2018-03-17T06:57:14.722Z,28.52
2018-03-17T06:59:44.432Z,26.90
2018-03-17T07:02:14.162Z,28.40
2018-03-17T07:04:43.898Z,28.40
2018-03-17T07:07:13.686Z,29.08
2018-03-17T07:09:43.399Z,27.50
2018-03-17T07:12:13.126Z,28.50
2018-03-17T07:14:42.838Z,29.63
2018-03-17T07:17:12.390Z,28.10
2018-03-17T07:19:42.125Z,29.40
2018-03-17T07:22:11.966Z,26.12
2018-03-17T07:24:41.694Z,29.75
2018-03-17T07:27:11.446Z,30.95
2018-03-17T07:29:41.310Z,28.62
2018-03-17T07:32:11.030Z,28.15
2018-03-17T07:34:40.856Z,26.23
2018-03-17T07:37:10.587Z,28.65
2018-03-17T07:39:40.313Z,27.35
2018-03-17T07:42:10.038Z,28.60
2018-03-17T07:44:39.843Z,29.27
2018-03-17T07:47:09.562Z,27.70
2018-03-17T07:49:39.302Z,28.70
2018-03-17T07:52:08.854Z,27.80
2018-03-17T07:54:38.590Z,28.90
2018-03-17T07:57:08.326Z,28.27
2018-03-17T07:59:38.122Z,31.27
2018-03-17T08:02:07.862Z,30.58
2018-03-17T08:04:37.638Z,30.65
2018-03-17T08:07:07.381Z,27.05
2018-03-17T08:09:37.603Z,29.45
2018-03-17T08:12:07.423Z,29.65
2018-03-17T08:14:37.293Z,30.55
2018-03-17T08:17:07.038Z,30.58
2018-03-17T08:19:36.774Z,29.77
2018-03-17T08:22:06.502Z,30.12
2018-03-17T08:24:36.225Z,30.02
2018-03-17T08:27:05.950Z,27.80
2018-03-17T08:29:35.757Z,29.70
2018-03-17T08:32:05.527Z,29.05
2018-03-17T08:34:35.257Z,28.92
2018-03-17T08:37:04.997Z,29.70
2018-03-17T08:39:34.735Z,28.40
2018-03-17T08:42:04.617Z,30.37
2018-03-17T08:44:34.589Z,29.08
2018-03-17T08:47:04.323Z,28.83
2018-03-17T08:49:34.054Z,27.87
2018-03-17T08:52:03.831Z,28.60
2018-03-17T08:54:33.722Z,31.77
2018-03-17T08:57:03.446Z,29.08
2018-03-17T08:59:33.173Z,28.38
2018-03-17T09:02:02.884Z,27.77
2018-03-17T09:04:32.672Z,29.50
2018-03-17T09:07:02.611Z,27.23
2018-03-17T09:09:32.335Z,28.15
2018-03-17T09:12:02.060Z,26.73
2018-03-17T09:14:31.805Z,26.75
2018-03-17T09:17:01.537Z,29.70
2018-03-17T09:19:31.298Z,27.52
2018-03-17T09:22:01.022Z,27.48
2018-03-17T09:24:30.742Z,26.73
2018-03-17T09:27:00.486Z,26.95
2018-03-17T09:29:30.558Z,27.05
2018-03-17T09:32:00.542Z,26.62
2018-03-17T09:34:30.274Z,27.62
2018-03-17T09:36:59.986Z,26.95
2018-03-17T09:39:29.805Z,28.12
2018-03-17T09:41:59.562Z,26.98
2018-03-17T09:44:29.284Z,27.30
2018-03-17T09:46:58.846Z,27.98
2018-03-17T09:49:28.697Z,28.87
2018-03-17T09:51:58.411Z,30.80
2018-03-17T09:54:28.180Z,28.73
2018-03-17T09:56:57.891Z,28.05
2018-03-17T09:59:27.627Z,28.02
2018-03-17T10:01:57.402Z,26.75
2018-03-17T10:04:26.778Z,27.58
2018-03-17T10:06:56.511Z,28.67
2018-03-17T10:09:26.259Z,28.45
2018-03-17T10:11:56.002Z,28.55
2018-03-17T10:14:25.724Z,25.98
2018-03-17T10:16:55.595Z,29.00
2018-03-17T10:19:25.362Z,28.05
2018-03-17T10:21:55.110Z,28.52
2018-03-17T10:24:24.890Z,28.40
2018-03-17T10:26:54.668Z,27.92
2018-03-17T10:29:24.481Z,29.00
2018-03-17T10:31:54.321Z,28.98
2018-03-17T10:34:24.064Z,26.92
2018-03-17T10:36:53.828Z,29.63
2018-03-17T10:39:23.550Z,30.95
2018-03-17T10:41:53.463Z,30.98
2018-03-17T10:44:23.205Z,32.22
2018-03-17T10:46:53.039Z,31.05
2018-03-17T10:49:22.771Z,28.35
2018-03-17T10:51:52.290Z,29.90
2018-03-17T10:54:22.025Z,29.75
2018-03-17T10:56:51.785Z,31.95
2018-03-17T10:59:21.334Z,27.62
2018-03-17T11:01:50.899Z,30.75
2018-03-17T11:04:20.602Z,29.95
2018-03-17T11:06:50.366Z,29.23
2018-03-17T11:09:20.086Z,29.25
2018-03-17T11:11:49.814Z,27.85
2018-03-17T11:14:19.338Z,27.98
2018-03-17T11:16:49.158Z,29.80
2018-03-17T11:19:19.014Z,32.60
2018-03-17T11:21:48.965Z,28.00
2018-03-17T11:24:18.669Z,30.85
2018-03-17T11:26:48.445Z,28.67
2018-03-17T11:29:18.185Z,30.62
2018-03-17T11:31:47.968Z,30.15
2018-03-17T11:34:17.764Z,29.35
2018-03-17T11:36:47.580Z,30.20
2018-03-17T11:39:17.312Z,27.40
2018-03-17T11:41:45.888Z,29.65
2018-03-17T11:44:15.623Z,27.73
2018-03-17T11:46:45.207Z,29.65
2018-03-17T11:49:14.924Z,29.63
2018-03-17T11:51:44.662Z,28.62
2018-03-17T11:54:14.385Z,29.70
2018-03-17T11:56:43.086Z,29.17
2018-03-17T11:59:11.815Z,27.20
2018-03-17T12:01:40.941Z,29.63
2018-03-17T12:04:10.682Z,27.50
2018-03-17T12:06:40.416Z,26.95
2018-03-17T12:09:10.147Z,27.58
2018-03-17T12:11:39.895Z,27.25
2018-03-17T12:14:09.623Z,26.80
2018-03-17T12:16:39.411Z,27.30
2018-03-17T12:19:09.146Z,28.67
2018-03-17T12:21:38.902Z,26.90
2018-03-17T12:24:08.696Z,28.33
2018-03-17T12:26:38.442Z,27.73
2018-03-17T12:29:08.538Z,26.73
2018-03-17T12:31:38.306Z,26.87
2018-03-17T12:34:08.081Z,27.25
2018-03-17T12:36:37.864Z,25.85
2018-03-17T12:39:07.572Z,26.65
2018-03-17T12:41:37.315Z,25.73
2018-03-17T12:44:07.054Z,25.90
2018-03-17T12:46:36.795Z,23.73
2018-03-17T12:49:06.526Z,26.17
2018-03-17T12:51:36.262Z,23.87
2018-03-17T12:54:06.039Z,24.55
2018-03-17T12:56:35.777Z,23.87
2018-03-17T12:59:05.550Z,25.70
2018-03-17T13:01:35.263Z,26.80
2018-03-17T13:04:04.999Z,26.52
2018-03-17T13:06:34.728Z,25.00
2018-03-17T13:09:04.227Z,26.42
2018-03-17T13:11:33.960Z,26.55
2018-03-17T13:14:03.544Z,25.05
2018-03-17T13:16:33.273Z,25.58
2018-03-17T13:19:02.783Z,25.83
2018-03-17T13:21:32.531Z,24.30
2018-03-17T13:24:02.273Z,25.80
2018-03-17T13:26:31.992Z,27.67
2018-03-17T13:29:01.818Z,24.63
2018-03-17T13:31:31.563Z,26.02
2018-03-17T13:34:01.359Z,24.12
2018-03-17T13:36:36.494Z,23.87
2018-03-17T13:39:06.250Z,23.65
2018-03-17T13:41:35.998Z,23.77
2018-03-17T13:44:05.739Z,25.58
2018-03-17T13:46:35.486Z,23.65
2018-03-17T13:49:05.266Z,23.38
2018-03-17T13:51:34.988Z,25.10
2018-03-17T13:54:04.762Z,22.87
2018-03-17T13:56:34.502Z,23.85
2018-03-17T13:59:04.226Z,26.60
2018-03-17T14:01:33.962Z,22.60
2018-03-17T14:04:03.699Z,26.23
2018-03-17T14:06:34.881Z,24.15
2018-03-17T14:09:04.351Z,23.08
2018-03-17T14:11:34.217Z,24.17
2018-03-17T14:14:03.620Z,25.02
2018-03-17T14:16:33.351Z,24.27
2018-03-17T14:19:03.142Z,24.90
2018-03-17T14:21:33.123Z,24.52
2018-03-17T14:24:02.846Z,24.95
2018-03-17T14:26:32.574Z,25.77
2018-03-17T14:29:02.363Z,25.05
2018-03-17T14:31:31.988Z,25.77
2018-03-17T14:34:01.803Z,26.00
2018-03-17T14:36:31.727Z,24.60
2018-03-17T14:39:01.609Z,26.33
2018-03-17T14:41:31.506Z,24.65
2018-03-17T14:44:01.255Z,25.60
2018-03-17T14:46:29.970Z,25.70
2018-03-17T14:48:59.730Z,26.10
2018-03-17T14:51:29.146Z,29.37
2018-03-17T14:53:58.904Z,30.10
2018-03-17T14:56:28.631Z,26.73
2018-03-17T14:58:58.510Z,26.52
2018-03-17T15:01:28.239Z,27.25
2018-03-17T15:03:58.073Z,25.70
2018-03-17T15:06:28.028Z,25.98
2018-03-17T15:08:57.788Z,26.15
2018-03-17T15:11:27.538Z,25.92
2018-03-17T15:13:57.258Z,26.67
2018-03-17T15:16:26.986Z,22.55
2018-03-17T15:18:56.702Z,25.25
2018-03-17T15:21:26.435Z,28.40
2018-03-17T15:23:56.379Z,28.27
2018-03-17T15:26:26.118Z,27.25
2018-03-17T15:28:55.831Z,25.52
2018-03-17T15:31:25.554Z,26.58
2018-03-17T15:33:55.468Z,26.00
2018-03-17T15:36:25.398Z,27.02
2018-03-17T15:38:55.122Z,32.38
2018-03-17T15:41:24.869Z,27.70
2018-03-17T15:43:54.642Z,28.95
2018-03-17T15:46:24.374Z,28.35
2018-03-17T15:48:54.085Z,25.42
2018-03-17T15:51:23.910Z,25.98
2018-03-17T15:53:53.642Z,25.77
2018-03-17T15:56:23.533Z,25.90
2018-03-17T15:58:52.909Z,26.85
2018-03-17T16:01:22.623Z,25.85
2018-03-17T16:03:52.393Z,27.58
2018-03-17T16:06:22.182Z,26.10
2018-03-17T16:08:51.952Z,29.52
2018-03-17T16:11:21.678Z,30.80
2018-03-17T16:13:51.644Z,30.05
2018-03-17T16:16:21.410Z,29.30
2018-03-17T16:18:51.196Z,31.65
2018-03-17T16:21:20.935Z,27.13
2018-03-17T16:23:50.657Z,25.80
2018-03-17T16:26:20.654Z,25.00
2018-03-17T16:28:51.135Z,26.73
2018-03-17T16:31:21.581Z,25.42
2018-03-17T16:33:52.289Z,26.87
2018-03-17T16:36:23.290Z,26.33
2018-03-17T16:38:53.350Z,24.65
2018-03-17T16:41:23.504Z,25.52
2018-03-17T16:43:53.775Z,26.02
2018-03-17T16:46:23.343Z,24.10
2018-03-17T16:48:52.455Z,25.48
2018-03-17T16:51:22.705Z,25.77
2018-03-17T16:53:52.435Z,25.83
2018-03-17T16:56:22.006Z,25.42
2018-03-17T16:58:51.736Z,23.60
2018-03-17T17:01:21.626Z,24.12
2018-03-17T17:03:51.342Z,22.98
2018-03-17T17:06:20.498Z,25.10
2018-03-17T17:08:49.634Z,24.37
2018-03-17T17:11:19.872Z,24.63
2018-03-17T17:13:49.775Z,24.00
2018-03-17T17:16:19.574Z,24.48
2018-03-17T17:18:49.503Z,24.65
2018-03-17T17:21:18.624Z,23.33
2018-03-17T17:23:48.565Z,24.10
2018-03-17T17:26:18.329Z,23.00
2018-03-17T17:28:48.080Z,24.23
2018-03-17T17:31:17.830Z,22.05
2018-03-17T17:33:46.543Z,21.92
2018-03-17T17:36:15.688Z,22.15
2018-03-17T17:38:45.457Z,24.77
2018-03-17T17:41:14.593Z,23.80
2018-03-17T17:43:44.468Z,22.90
2018-03-17T17:46:13.608Z,22.37
2018-03-17T17:48:43.594Z,22.37
2018-03-17T17:51:13.318Z,23.08
2018-03-17T17:53:43.061Z,21.75
2018-03-17T17:56:12.796Z,22.83
2018-03-17T17:58:42.546Z,22.27
2018-03-17T18:01:12.275Z,21.77
2018-03-17T18:03:42.014Z,21.85
2018-03-17T18:06:11.750Z,22.48
2018-03-17T18:08:41.508Z,20.20
2018-03-17T18:11:10.785Z,22.02
2018-03-17T18:13:39.563Z,22.20
2018-03-17T18:16:08.664Z,21.02
2018-03-17T18:18:38.501Z,19.95
2018-03-17T18:21:08.250Z,21.42
2018-03-17T18:23:38.482Z,21.90
2018-03-17T18:26:07.731Z,21.87
2018-03-17T18:28:37.604Z,18.65
2018-03-17T18:31:07.354Z,22.42
2018-03-17T18:33:37.102Z,24.27
2018-03-17T18:36:06.850Z,20.83
2018-03-17T18:38:36.579Z,21.75
2018-03-17T18:41:06.344Z,19.50
2018-03-17T18:43:36.139Z,23.02
2018-03-17T18:46:05.900Z,21.35
2018-03-17T18:48:35.630Z,21.15
2018-03-17T18:51:05.389Z,21.27
2018-03-17T18:53:35.318Z,21.00
2018-03-17T18:56:05.143Z,22.27
2018-03-17T18:58:34.863Z,21.25
2018-03-17T19:01:04.615Z,22.25
2018-03-17T19:03:34.390Z,20.83
2018-03-17T19:06:04.127Z,21.70
2018-03-17T19:08:33.618Z,21.10
2018-03-17T19:11:03.358Z,22.62
2018-03-17T19:13:33.090Z,20.80
2018-03-17T19:16:02.604Z,22.10
2018-03-17T19:18:32.375Z,22.25
2018-03-17T19:21:02.170Z,23.45
2018-03-17T19:23:32.082Z,22.08
2018-03-17T19:26:01.584Z,22.30
2018-03-17T19:28:31.330Z,22.00
2018-03-17T19:31:00.341Z,22.67
2018-03-17T19:33:29.093Z,21.60
2018-03-17T19:35:58.591Z,21.05
2018-03-17T19:38:28.106Z,21.65
2018-03-17T19:40:57.893Z,22.25
2018-03-17T19:43:27.619Z,21.70
2018-03-17T19:45:57.400Z,21.50
2018-03-17T19:48:26.115Z,21.30
2018-03-17T19:50:55.610Z,21.70
2018-03-17T19:53:24.731Z,21.92
2018-03-17T19:55:54.247Z,23.27
2018-03-17T19:58:23.027Z,21.00
2018-03-17T20:00:52.786Z,22.25
2018-03-17T20:03:22.251Z,23.50
2018-03-17T20:05:51.371Z,21.65
2018-03-17T20:08:21.108Z,22.95
2018-03-17T20:10:50.851Z,21.65
2018-03-17T20:13:20.367Z,21.90
2018-03-17T20:15:49.847Z,20.05
2018-03-17T20:18:19.802Z,24.30
2018-03-17T20:20:48.566Z,23.05
2018-03-17T20:23:18.348Z,23.60
2018-03-17T20:25:47.055Z,22.40
2018-03-17T20:28:15.884Z,22.95
2018-03-17T20:30:44.646Z,22.55
2018-03-17T20:33:14.582Z,24.42
2018-03-17T20:35:44.075Z,22.67
2018-03-17T20:38:13.571Z,22.35
2018-03-17T20:40:43.359Z,24.75
2018-03-17T20:43:12.869Z,25.10
2018-03-17T20:45:41.571Z,24.08
2018-03-17T20:48:10.311Z,23.85
2018-03-17T20:50:39.066Z,25.30
2018-03-17T20:53:09.292Z,22.37
2018-03-17T20:55:38.807Z,23.85
2018-03-17T20:58:08.547Z,25.17
2018-03-17T21:00:37.270Z,26.20
2018-03-17T21:03:06.400Z,23.25
2018-03-17T21:05:35.918Z,23.80
2018-03-17T21:08:05.670Z,24.08
2018-03-17T21:10:35.150Z,26.00
2018-03-17T21:13:05.486Z,24.73
2018-03-17T21:15:34.260Z,25.70
2018-03-17T21:18:02.979Z,25.52
2018-03-17T21:20:31.702Z,25.55
2018-03-17T21:23:01.474Z,26.15
2018-03-17T21:25:30.995Z,27.95
2018-03-17T21:27:59.775Z,23.38
2018-03-17T21:30:28.507Z,25.88
2018-03-17T21:32:57.418Z,26.67
2018-03-17T21:35:26.926Z,27.10
2018-03-17T21:37:56.485Z,26.55
2018-03-17T21:40:26.093Z,27.73
2018-03-17T21:42:54.821Z,28.10
2018-03-17T21:45:25.116Z,24.33
2018-03-17T21:47:54.240Z,26.75
2018-03-17T21:50:23.795Z,27.67
2018-03-17T21:52:52.924Z,25.50
2018-03-17T21:55:22.662Z,26.80
2018-03-17T21:57:52.438Z,24.17
2018-03-17T22:00:22.189Z,26.00
2018-03-17T22:02:51.937Z,27.75
2018-03-17T22:05:21.663Z,28.00
2018-03-17T22:07:51.427Z,25.08
2018-03-17T22:10:21.440Z,28.08
2018-03-17T22:12:50.935Z,27.67
2018-03-17T22:15:19.659Z,26.75
2018-03-17T22:17:48.414Z,27.30
2018-03-17T22:20:17.229Z,25.80
2018-03-17T22:22:46.136Z,26.73
2018-03-17T22:25:15.060Z,26.73
2018-03-17T22:27:43.804Z,26.67
2018-03-17T22:30:12.627Z,25.77
2018-03-17T22:32:41.371Z,25.55
2018-03-17T22:35:10.844Z,21.40
2018-03-17T22:37:39.575Z,24.12
2018-03-17T22:40:08.319Z,23.00
2018-03-17T22:42:38.067Z,23.75
2018-03-17T22:45:07.615Z,23.73
2018-03-17T22:47:36.346Z,25.08
2018-03-17T22:50:05.467Z,25.67
2018-03-17T22:52:35.050Z,26.60
2018-03-17T22:55:05.323Z,25.52
2018-03-17T22:57:34.801Z,26.37
2018-03-17T23:00:04.220Z,22.08
2018-03-17T23:02:34.020Z,25.73
2018-03-17T23:05:03.523Z,25.50
2018-03-17T23:07:33.245Z,23.17
2018-03-17T23:10:01.963Z,25.55
2018-03-17T23:12:30.730Z,24.63
2018-03-17T23:14:59.875Z,27.85
2018-03-17T23:17:28.414Z,27.55
2018-03-17T23:19:56.962Z,27.50
2018-03-17T23:22:26.455Z,22.30
2018-03-17T23:24:55.596Z,25.17
2018-03-17T23:27:24.326Z,24.73
2018-03-17T23:29:52.838Z,26.05
2018-03-17T23:32:22.026Z,21.87
2018-03-17T23:34:50.758Z,23.85
2018-03-17T23:37:19.467Z,23.92
2018-03-17T23:39:48.411Z,24.02
2018-03-17T23:42:17.173Z,24.12
2018-03-17T23:44:45.868Z,24.63
2018-03-17T23:47:14.363Z,24.87
2018-03-17T23:49:42.920Z,24.95
2018-03-17T23:52:11.528Z,26.73
2018-03-17T23:54:40.083Z,26.80
2018-03-17T23:57:08.615Z,26.87
2018-03-17T23:59:37.927Z,27.77
